Galt, MO (64641)

3:32 PM CST on November 28, 2014 (GMT -0600)
Chapel Ridge | Change Station
CLOSE
Current Station
Personal Weather Station
Location: Spickard, MO
Elevation: 928 ft
Nearby Weather Stations

Elev 928 ft 40.27 °N, 93.53 °W | Updated 8 minutes ago

Clear
Clear
48.2 °F
Feels Like 47 °F
N
3.8
Wind Variable Wind from SSE

Today
High -- | Low -- °F
--% Chance of Precip.
Yesterday
High -- | Low -- °F
Precip. -- in
7:13 AM 4:49 PM
Waxing Crescent, 44% visible
Pressure 29.81 in
Visibility 10.0 miles
Clouds Clear
Windchill 47 °F
Dew Point 31 °F
Humidity 51%
Rainfall 0.00 in
Snow Depth Not available.
UV 1 out of 12
Pollen .10 out of 12
Air Quality Not available.
Flu Activity Not available.
METAR KLWD 282053Z AUTO 18012KT 10SM CLR 09/00 A2978 RMK AO2 SLP092 T00940000 56025

More Conditions Fewer Conditions

Pressure 29.81 in
Visibility 10.0 miles
Clouds Clear
Windchill 47 °F
Dew Point 31 °F
Humidity 51%
Rainfall 0.00 in
Snow Depth Not available.
UV 1 out of 12
Pollen .10 out of 12
Air Quality Not available.
Flu Activity Not available.
METAR KLWD 282053Z AUTO 18012KT 10SM CLR 09/00 A2978 RMK AO2 SLP092 T00940000 56025

More Conditions Fewer Conditions

10-Day Weather Forecast

Almanac

Astronomy

Nov. 28, 2014 Rise Set
Actual Time
Civil Twilight
Nautical Twilight
Astronomical Twilight
Moon
Length of Visible Light
Length of Day
Tomorrow will be .
, % of the Moon is Illuminated

Today's Extremes

State Highs State Lows

Community

WunderPhotos

Upload Photos

1,774,310 photos uploaded!

WunderBlogs® & News

Nearby

Air Quality

  Air Quality AQ Index Pollutant
Not available.

Snow Depth

Station Depth Elevation

Earthquake Activity

City Distance Mag. Time & Date
Minimum magnitude displayed is 2.5.

Coastal Water Temperatures

Place Temperature

Nearby Weather Stations